Time;durP1;ratioP1;P1;durP2;ratioP2;P2;SDS_P1;SDS_P2;PMS_P1;PMS_P2;Temp;Humidity;BMP_temperature;BMP_pressure;BME280_temperature;BME280_humidity;BME280_pressure;Samples;Min_cycle;Max_cycle;Signal;HPM_P1;HPM_P2
2022/11/07 00:00:55;;;;;;;;;;;9.20;86.40;;;;;;5033636;28;19905;-75
2022/11/07 00:03:21;;;;;;;;;;;9.10;86.60;;;;;;5030483;28;19913;-75
2022/11/07 00:05:46;;;;;;;;;;;9.20;86.40;;;;;;5034080;28;19905;-75
2022/11/07 00:08:11;;;;;;;;;;;9.20;86.60;;;;;;5033247;28;19920;-77
2022/11/07 00:10:37;;;;;;;;;;;9.20;86.30;;;;;;5031456;28;20407;-76
2022/11/07 00:13:02;;;;;;;;;;;9.20;86.30;;;;;;5025375;28;19920;-76
2022/11/07 00:15:28;;;;;;;;;;;9.30;86.30;;;;;;5024764;28;19909;-78
2022/11/07 00:17:53;;;;;;;;;;;9.30;85.80;;;;;;5024914;28;19913;-77
2022/11/07 00:20:18;;;;;;;;;;;9.30;86.10;;;;;;5031360;28;19978;-75
2022/11/07 00:22:44;;;;;;;;;;;9.30;86.50;;;;;;5030108;28;19916;-75
2022/11/07 00:25:09;;;;;;;;;;;9.30;86.40;;;;;;5033048;28;20346;-76
2022/11/07 00:27:35;;;;;;;;;;;9.40;86.20;;;;;;5030506;28;19913;-78
2022/11/07 00:30:00;;;;;;;;;;;9.30;86.20;;;;;;5024280;28;19909;-79
2022/11/07 00:32:26;;;;;;;;;;;9.40;86.20;;;;;;5023817;28;19909;-79
2022/11/07 00:34:51;;;;;;;;;;;9.40;86.00;;;;;;5028406;28;19920;-76
2022/11/07 00:37:16;;;;;;;;;;;9.40;86.00;;;;;;5032998;28;19908;-76
2022/11/07 00:39:42;;;;;;;;;;;9.50;85.70;;;;;;5031083;28;19913;-77
2022/11/07 00:42:07;;;;;;;;;;;9.50;86.20;;;;;;5030007;28;20490;-76
2022/11/07 00:44:33;;;;;;;;;;;9.50;86.00;;;;;;5028983;28;20258;-75
2022/11/07 00:46:58;;;;;;;;;;;9.50;86.40;;;;;;5026421;28;20361;-76
2022/11/07 00:49:23;;;;;;;;;;;9.60;86.00;;;;;;5024605;28;20480;-77
2022/11/07 00:51:49;;;;;;;;;;;9.60;86.10;;;;;;5029121;28;19909;-76
2022/11/07 00:54:14;;;;;;;;;;;9.60;86.00;;;;;;5031571;28;19917;-75
2022/11/07 00:56:40;;;;;;;;;;;9.60;85.90;;;;;;5045884;28;19908;-79
2022/11/07 00:59:05;;;;;;;;;;;9.70;86.00;;;;;;5025827;28;20268;-78
2022/11/07 01:01:31;;;;;;;;;;;9.60;86.30;;;;;;5019546;28;19917;-75
2022/11/07 01:06:42;;;;;;;;;;;9.70;86.60;;;;;;5032608;28;19917;-76
2022/11/07 01:09:08;;;;;;;;;;;9.70;86.20;;;;;;5031287;28;19924;-76
2022/11/07 01:11:36;;;;;;;;;;;9.70;86.30;;;;;;5037592;28;19919;-76
2022/11/07 01:14:02;;;;;;;;;;;9.80;85.80;;;;;;5018682;28;19913;-77
2022/11/07 01:16:29;;;;;;;;;;;9.80;86.20;;;;;;5028079;28;19932;-76
2022/11/07 01:18:54;;;;;;;;;;;9.70;86.20;;;;;;5031161;28;20395;-76
2022/11/07 01:21:20;;;;;;;;;;;9.80;86.10;;;;;;5018385;28;19917;-76
2022/11/07 01:23:46;;;;;;;;;;;9.80;86.10;;;;;;5028937;28;19913;-76
2022/11/07 01:26:12;;;;;;;;;;;9.70;86.30;;;;;;5029426;28;19913;-78
2022/11/07 01:28:38;;;;;;;;;;;9.80;86.30;;;;;;5003401;28;19949;-74
2022/11/07 01:31:04;;;;;;;;;;;9.80;86.10;;;;;;5028315;28;19949;-77
2022/11/07 01:33:29;;;;;;;;;;;9.90;85.90;;;;;;5017955;28;19905;-76
2022/11/07 01:35:58;;;;;;;;;;;9.90;86.00;;;;;;5026564;28;19911;-77
2022/11/07 01:38:24;;;;;;;;;;;9.90;86.10;;;;;;5003529;28;19967;-77
2022/11/07 01:43:47;;;;;;;;;;;9.90;86.00;;;;;;5018843;28;19963;-77
2022/11/07 01:46:12;;;;;;;;;;;10.00;85.90;;;;;;5012583;28;19952;-77
2022/11/07 01:48:38;;;;;;;;;;;10.00;85.90;;;;;;5031115;28;19955;-76
2022/11/07 01:51:04;;;;;;;;;;;10.00;86.00;;;;;;5003471;28;19940;-76
2022/11/07 01:53:30;;;;;;;;;;;10.00;86.10;;;;;;5031705;28;19905;-76
2022/11/07 01:55:55;;;;;;;;;;;10.00;86.10;;;;;;5030448;28;20280;-77
2022/11/07 01:58:21;;;;;;;;;;;10.00;85.90;;;;;;5030845;28;19908;-79
2022/11/07 02:00:46;;;;;;;;;;;10.10;85.80;;;;;;5032046;28;19905;-76
2022/11/07 02:03:13;;;;;;;;;;;10.10;85.70;;;;;;5030548;28;19913;-78
2022/11/07 02:05:45;;;;;;;;;;;10.00;86.20;;;;;;5028168;28;19966;-76
2022/11/07 02:08:11;;;;;;;;;;;10.00;86.30;;;;;;5027991;28;19917;-77
2022/11/07 02:10:38;;;;;;;;;;;10.00;86.60;;;;;;5028967;28;19913;-76
2022/11/07 02:13:04;;;;;;;;;;;10.00;86.60;;;;;;5026074;28;20549;-80
2022/11/07 02:15:29;;;;;;;;;;;10.00;86.60;;;;;;5012290;28;19934;-76
2022/11/07 02:17:56;;;;;;;;;;;10.00;86.60;;;;;;5025178;28;19935;-76
2022/11/07 02:20:21;;;;;;;;;;;10.10;86.60;;;;;;5020015;28;19913;-77
2022/11/07 02:22:55;;;;;;;;;;;10.00;86.90;;;;;;5028655;28;19913;-78
2022/11/07 02:25:20;;;;;;;;;;;10.00;87.00;;;;;;5025623;28;19917;-79
2022/11/07 02:27:47;;;;;;;;;;;10.10;86.60;;;;;;5028598;28;19916;-78
2022/11/07 02:30:17;;;;;;;;;;;10.10;86.70;;;;;;5027063;28;19999;-77
2022/11/07 02:32:43;;;;;;;;;;;10.10;86.80;;;;;;5040758;28;19968;-76
2022/11/07 02:35:27;;;;;;;;;;;10.10;86.80;;;;;;5016479;28;19921;-76
2022/11/07 02:37:53;;;;;;;;;;;10.10;86.90;;;;;;5022103;28;19905;-76
2022/11/07 02:40:19;;;;;;;;;;;10.10;87.00;;;;;;5017436;28;19916;-76
2022/11/07 02:42:45;;;;;;;;;;;10.20;86.70;;;;;;5024852;28;19913;-79
2022/11/07 02:45:16;;;;;;;;;;;10.30;86.50;;;;;;5027404;28;19913;-77
2022/11/07 02:47:41;;;;;;;;;;;10.30;86.60;;;;;;5030297;28;19996;-77
2022/11/07 02:50:10;;;;;;;;;;;10.30;86.90;;;;;;5031119;28;19951;-77
2022/11/07 02:52:36;;;;;;;;;;;10.30;86.90;;;;;;5034182;28;19960;-77
2022/11/07 02:55:02;;;;;;;;;;;10.30;86.90;;;;;;5017975;28;19921;-79
2022/11/07 02:57:27;;;;;;;;;;;10.30;87.00;;;;;;5028624;28;20361;-76
2022/11/07 02:59:53;;;;;;;;;;;10.30;87.20;;;;;;5028018;28;19913;-77
2022/11/07 03:02:18;;;;;;;;;;;10.40;87.10;;;;;;5022600;28;19921;-78
2022/11/07 03:04:44;;;;;;;;;;;10.40;87.10;;;;;;5030600;28;19968;-81
2022/11/07 03:07:09;;;;;;;;;;;10.50;86.80;;;;;;5034650;28;20384;-76
2022/11/07 03:09:34;;;;;;;;;;;10.50;86.90;;;;;;5032413;28;20008;-77
2022/11/07 03:12:00;;;;;;;;;;;10.50;87.00;;;;;;5030855;28;19996;-78
2022/11/07 03:14:25;;;;;;;;;;;10.50;87.10;;;;;;5026335;28;19999;-78
2022/11/07 03:16:51;;;;;;;;;;;10.50;86.90;;;;;;5032261;28;19913;-78
2022/11/07 03:19:16;;;;;;;;;;;10.50;87.00;;;;;;5029095;28;20364;-77
2022/11/07 03:21:41;;;;;;;;;;;10.50;87.20;;;;;;5029141;28;19917;-78
2022/11/07 03:24:07;;;;;;;;;;;10.50;87.30;;;;;;5025864;28;20278;-78
2022/11/07 03:26:32;;;;;;;;;;;10.50;87.20;;;;;;5034864;28;19956;-78
2022/11/07 03:28:58;;;;;;;;;;;10.40;87.30;;;;;;5030707;28;19909;-77
2022/11/07 03:31:23;;;;;;;;;;;10.30;87.70;;;;;;5031094;28;19920;-77
2022/11/07 03:33:49;;;;;;;;;;;10.20;88.00;;;;;;5026500;28;19909;-78
2022/11/07 03:36:14;;;;;;;;;;;10.10;88.10;;;;;;5021637;28;20384;-76
2022/11/07 03:38:40;;;;;;;;;;;10.10;88.60;;;;;;5009236;28;20046;-77
2022/11/07 03:41:05;;;;;;;;;;;10.10;88.80;;;;;;5032857;28;19950;-77
2022/11/07 03:43:31;;;;;;;;;;;10.20;88.50;;;;;;5027862;28;19920;-77
2022/11/07 03:45:56;;;;;;;;;;;10.20;88.50;;;;;;5031111;28;19909;-77
2022/11/07 03:48:21;;;;;;;;;;;10.30;88.40;;;;;;5033238;28;19920;-78
2022/11/07 03:50:47;;;;;;;;;;;10.30;88.40;;;;;;5033030;28;20375;-79
2022/11/07 03:53:12;;;;;;;;;;;10.40;88.50;;;;;;5029688;28;19913;-77
2022/11/07 03:55:38;;;;;;;;;;;10.40;88.20;;;;;;5036045;28;19920;-76
2022/11/07 03:58:04;;;;;;;;;;;10.40;88.50;;;;;;5028719;28;20284;-76
2022/11/07 04:00:29;;;;;;;;;;;10.40;88.50;;;;;;5041873;28;19913;-77
2022/11/07 04:02:54;;;;;;;;;;;10.50;88.30;;;;;;5039996;28;19928;-77
2022/11/07 04:05:20;;;;;;;;;;;10.50;88.20;;;;;;5039567;28;20031;-77
2022/11/07 04:07:45;;;;;;;;;;;10.60;88.10;;;;;;5042530;28;19959;-80
2022/11/07 04:10:11;;;;;;;;;;;10.50;88.30;;;;;;5029173;28;19913;-76
2022/11/07 04:18:05;;;;;;;;;;;10.60;87.80;;;;;;5031921;28;20320;-77
2022/11/07 04:20:30;;;;;;;;;;;10.60;87.80;;;;;;5030922;28;19909;-76
2022/11/07 04:22:55;;;;;;;;;;;10.50;88.10;;;;;;5028543;28;19928;-77
2022/11/07 04:27:41;;;;;;;;;;;10.40;88.50;;;;;;5022338;28;19917;-77
2022/11/07 04:28:06;;;;;;;;;;;10.30;88.70;;;;;;5030578;28;19959;-77
2022/11/07 04:30:32;;;;;;;;;;;10.30;89.10;;;;;;5005010;28;21217;-77
2022/11/07 04:32:58;;;;;;;;;;;10.30;88.80;;;;;;5024872;28;19909;-77
2022/11/07 04:35:25;;;;;;;;;;;10.30;88.80;;;;;;5027596;28;19917;-77
2022/11/07 04:37:50;;;;;;;;;;;10.20;89.10;;;;;;5025171;28;20276;-81
2022/11/07 04:40:15;;;;;;;;;;;10.20;89.20;;;;;;5027490;28;19935;-76
2022/11/07 04:42:41;;;;;;;;;;;10.10;89.40;;;;;;5030275;28;20361;-79
2022/11/07 04:45:07;;;;;;;;;;;10.20;89.50;;;;;;5018574;28;19936;-76
2022/11/07 04:47:33;;;;;;;;;;;10.30;89.10;;;;;;5028945;28;19959;-76
2022/11/07 04:49:58;;;;;;;;;;;10.10;89.40;;;;;;5032448;28;20303;-76
2022/11/07 04:52:23;;;;;;;;;;;10.10;89.50;;;;;;5028950;28;19929;-77
2022/11/07 04:54:49;;;;;;;;;;;10.00;90.00;;;;;;5025161;28;19909;-80
2022/11/07 04:57:14;;;;;;;;;;;10.00;89.80;;;;;;5028982;28;20009;-76
2022/11/07 04:59:40;;;;;;;;;;;10.00;90.20;;;;;;5012449;28;19913;-77
2022/11/07 05:02:07;;;;;;;;;;;10.00;90.00;;;;;;5028726;28;20420;-76
2022/11/07 05:04:33;;;;;;;;;;;10.00;89.90;;;;;;5022330;28;19909;-76
2022/11/07 05:06:58;;;;;;;;;;;10.00;90.10;;;;;;5030947;28;19935;-78
2022/11/07 05:09:23;;;;;;;;;;;9.90;90.10;;;;;;5033287;28;20384;-75
2022/11/07 05:11:49;;;;;;;;;;;9.90;90.60;;;;;;5030684;28;19916;-77
2022/11/07 05:14:14;;;;;;;;;;;9.90;90.50;;;;;;5025005;28;19920;-76
2022/11/07 05:16:41;;;;;;;;;;;9.80;90.80;;;;;;5025118;28;19945;-77
2022/11/07 05:19:10;;;;;;;;;;;9.80;90.70;;;;;;5022526;28;20027;-77
2022/11/07 05:21:36;;;;;;;;;;;9.80;90.90;;;;;;5029862;28;20041;-76
2022/11/07 05:24:01;;;;;;;;;;;9.80;91.00;;;;;;5023697;28;19976;-77
2022/11/07 05:26:26;;;;;;;;;;;9.70;91.20;;;;;;5027534;28;19952;-77
2022/11/07 05:28:52;;;;;;;;;;;9.90;91.00;;;;;;5029847;28;19917;-72
2022/11/07 05:31:17;;;;;;;;;;;9.80;90.80;;;;;;5028121;28;19964;-72
2022/11/07 05:33:43;;;;;;;;;;;9.70;91.20;;;;;;5012751;28;19917;-70
2022/11/07 05:36:11;;;;;;;;;;;9.60;91.20;;;;;;5004848;28;19909;-74
2022/11/07 05:38:38;;;;;;;;;;;9.70;91.30;;;;;;5027853;28;19909;-72
2022/11/07 05:41:04;;;;;;;;;;;9.70;91.50;;;;;;5011160;28;20387;-72
2022/11/07 05:43:29;;;;;;;;;;;9.60;91.70;;;;;;5010813;28;19914;-73
2022/11/07 05:46:00;;;;;;;;;;;9.70;91.60;;;;;;5014207;28;19909;-71
2022/11/07 05:48:25;;;;;;;;;;;9.80;91.60;;;;;;5010070;28;19915;-71
2022/11/07 05:50:51;;;;;;;;;;;9.80;91.40;;;;;;5026020;28;19909;-74
2022/11/07 05:53:19;;;;;;;;;;;9.70;91.50;;;;;;5026288;28;19975;-70
2022/11/07 05:55:45;;;;;;;;;;;9.70;91.80;;;;;;5024134;28;19948;-72
2022/11/07 05:58:11;;;;;;;;;;;9.70;91.70;;;;;;5012109;28;19959;-72
2022/11/07 06:00:36;;;;;;;;;;;9.70;91.70;;;;;;5011043;28;19913;-71
2022/11/07 06:03:03;;;;;;;;;;;9.80;91.60;;;;;;5007133;28;19917;-71
2022/11/07 06:05:29;;;;;;;;;;;9.80;91.80;;;;;;5011237;28;20308;-71
2022/11/07 06:07:54;;;;;;;;;;;9.70;91.60;;;;;;5016037;28;19951;-73
2022/11/07 06:10:20;;;;;;;;;;;9.90;91.80;;;;;;5025982;28;19913;-71
2022/11/07 06:12:45;;;;;;;;;;;9.90;91.40;;;;;;5027861;28;19909;-71
2022/11/07 06:15:12;;;;;;;;;;;9.70;91.50;;;;;;5025048;28;19913;-73
2022/11/07 06:17:38;;;;;;;;;;;9.80;92.00;;;;;;5028477;28;19905;-71
2022/11/07 06:20:03;;;;;;;;;;;9.70;91.70;;;;;;5022119;28;19921;-75
2022/11/07 06:22:29;;;;;;;;;;;9.80;91.80;;;;;;5026202;28;19967;-70
2022/11/07 06:24:55;;;;;;;;;;;10.00;91.50;;;;;;5027213;28;19913;-72
2022/11/07 06:27:21;;;;;;;;;;;10.10;91.20;;;;;;5027912;28;19912;-69
2022/11/07 06:29:46;;;;;;;;;;;10.20;90.80;;;;;;5032482;28;19979;-70
2022/11/07 06:32:11;;;;;;;;;;;10.20;90.90;;;;;;5033033;28;19913;-70
2022/11/07 06:34:37;;;;;;;;;;;10.30;90.70;;;;;;5031748;28;20428;-69
2022/11/07 06:37:02;;;;;;;;;;;10.30;90.60;;;;;;5026748;28;20385;-68
2022/11/07 06:39:28;;;;;;;;;;;10.40;90.40;;;;;;5030754;28;20003;-69
2022/11/07 06:41:53;;;;;;;;;;;10.40;90.20;;;;;;5031771;28;20276;-71
2022/11/07 06:44:18;;;;;;;;;;;10.40;90.20;;;;;;5029143;28;20383;-68
2022/11/07 06:46:47;;;;;;;;;;;10.50;90.00;;;;;;5023060;28;19909;-70
2022/11/07 06:49:13;;;;;;;;;;;10.50;90.00;;;;;;5030220;28;19909;-73
2022/11/07 06:51:38;;;;;;;;;;;10.40;90.20;;;;;;5023770;28;19925;-71
2022/11/07 06:54:04;;;;;;;;;;;10.60;89.90;;;;;;5025505;28;19913;-69
2022/11/07 06:56:29;;;;;;;;;;;10.50;90.00;;;;;;5033244;28;19920;-69
2022/11/07 06:58:55;;;;;;;;;;;10.50;90.20;;;;;;5029190;28;19905;-69
2022/11/07 07:01:20;;;;;;;;;;;10.50;90.00;;;;;;5032302;28;20015;-69
2022/11/07 07:03:45;;;;;;;;;;;10.60;89.90;;;;;;5017290;28;19956;-72
2022/11/07 07:06:12;;;;;;;;;;;10.60;89.80;;;;;;5030193;28;20411;-70
2022/11/07 07:08:38;;;;;;;;;;;10.60;89.80;;;;;;5032252;28;19917;-71
2022/11/07 07:11:04;;;;;;;;;;;10.60;89.80;;;;;;5024143;28;19917;-73
2022/11/07 07:13:30;;;;;;;;;;;10.60;89.80;;;;;;5028735;28;19912;-70
2022/11/07 07:15:56;;;;;;;;;;;10.50;90.10;;;;;;5030206;28;19979;-69
2022/11/07 07:18:22;;;;;;;;;;;10.50;90.00;;;;;;5032995;28;19913;-70
2022/11/07 07:20:48;;;;;;;;;;;10.60;89.80;;;;;;5034184;28;19952;-70
2022/11/07 07:23:14;;;;;;;;;;;10.70;89.50;;;;;;5034487;28;20016;-70
2022/11/07 07:25:40;;;;;;;;;;;10.70;89.60;;;;;;5039245;28;20000;-69
2022/11/07 07:28:05;;;;;;;;;;;10.70;89.70;;;;;;5035979;28;19909;-69
2022/11/07 07:30:31;;;;;;;;;;;10.70;89.60;;;;;;5034864;28;19913;-69
2022/11/07 07:32:56;;;;;;;;;;;10.70;89.70;;;;;;5041623;28;19912;-70
2022/11/07 07:35:21;;;;;;;;;;;10.80;89.60;;;;;;5038567;28;20043;-70
2022/11/07 07:37:48;;;;;;;;;;;10.80;89.40;;;;;;5036824;28;19908;-70
2022/11/07 07:40:13;;;;;;;;;;;10.70;89.50;;;;;;5030446;28;20430;-69
2022/11/07 07:42:40;;;;;;;;;;;10.70;89.70;;;;;;5025423;28;19921;-69
2022/11/07 07:45:05;;;;;;;;;;;10.80;89.50;;;;;;5024373;28;19921;-69
2022/11/07 07:47:31;;;;;;;;;;;10.80;89.40;;;;;;5013586;28;19917;-72
2022/11/07 07:49:56;;;;;;;;;;;10.70;89.60;;;;;;5028494;28;20395;-69
2022/11/07 07:52:22;;;;;;;;;;;10.70;89.60;;;;;;5026824;28;19909;-70
2022/11/07 07:54:47;;;;;;;;;;;10.60;89.90;;;;;;5036247;28;19917;-69
2022/11/07 07:57:13;;;;;;;;;;;10.60;89.90;;;;;;5037312;28;20003;-71
2022/11/07 07:59:38;;;;;;;;;;;10.60;89.90;;;;;;5042484;28;19913;-69
2022/11/07 08:02:04;;;;;;;;;;;10.60;90.20;;;;;;5039139;28;19917;-70
2022/11/07 08:04:29;;;;;;;;;;;10.70;90.10;;;;;;5032072;28;19987;-71
2022/11/07 08:06:55;;;;;;;;;;;10.70;90.10;;;;;;5036022;28;19909;-72
2022/11/07 08:09:20;;;;;;;;;;;10.70;90.10;;;;;;5028477;28;20610;-70
2022/11/07 08:11:46;;;;;;;;;;;10.80;89.90;;;;;;5023440;28;19916;-71
2022/11/07 08:14:11;;;;;;;;;;;10.80;89.90;;;;;;5010308;28;20577;-72
2022/11/07 08:16:37;;;;;;;;;;;11.00;90.00;;;;;;5007555;28;20010;-71
2022/11/07 08:19:02;;;;;;;;;;;11.20;89.30;;;;;;5009692;28;20560;-71
2022/11/07 08:21:29;;;;;;;;;;;11.30;88.80;;;;;;5012712;28;20026;-71
2022/11/07 08:23:55;;;;;;;;;;;11.30;88.80;;;;;;5016063;28;19956;-72
2022/11/07 08:26:20;;;;;;;;;;;11.40;88.50;;;;;;5011872;28;19948;-72
2022/11/07 08:28:46;;;;;;;;;;;11.40;88.30;;;;;;5011212;28;19932;-71
2022/11/07 08:31:11;;;;;;;;;;;11.40;88.50;;;;;;5023467;28;20031;-73
2022/11/07 08:33:37;;;;;;;;;;;11.40;88.30;;;;;;5016573;28;20035;-71
2022/11/07 08:36:03;;;;;;;;;;;11.50;88.20;;;;;;5013549;28;19909;-72
2022/11/07 08:38:29;;;;;;;;;;;11.50;88.10;;;;;;5029105;28;19916;-71
2022/11/07 08:40:55;;;;;;;;;;;11.60;88.10;;;;;;5033197;28;19905;-70
2022/11/07 08:43:21;;;;;;;;;;;11.60;88.00;;;;;;5014337;28;19913;-74
2022/11/07 08:45:47;;;;;;;;;;;11.70;87.80;;;;;;5022347;28;20429;-73
2022/11/07 08:48:13;;;;;;;;;;;11.80;87.70;;;;;;5013308;28;19999;-71
2022/11/07 08:50:38;;;;;;;;;;;11.80;87.40;;;;;;5029926;28;20013;-72
2022/11/07 08:53:04;;;;;;;;;;;11.90;87.20;;;;;;5013862;28;19951;-71
2022/11/07 08:55:29;;;;;;;;;;;11.90;87.20;;;;;;5005026;28;20039;-73
2022/11/07 08:57:59;;;;;;;;;;;12.00;86.70;;;;;;5002912;28;19961;-71
2022/11/07 09:00:24;;;;;;;;;;;12.10;86.60;;;;;;5005778;28;20354;-71
2022/11/07 09:02:50;;;;;;;;;;;12.10;86.30;;;;;;5030687;28;20011;-71
2022/11/07 09:05:15;;;;;;;;;;;12.20;86.30;;;;;;5025819;28;20011;-70
2022/11/07 09:07:40;;;;;;;;;;;12.20;85.90;;;;;;5030123;28;20422;-71
2022/11/07 09:10:06;;;;;;;;;;;12.10;85.90;;;;;;5023188;28;19944;-71
2022/11/07 09:12:32;;;;;;;;;;;12.20;86.20;;;;;;5004866;28;20011;-73
2022/11/07 09:14:57;;;;;;;;;;;12.30;85.90;;;;;;5007264;28;19940;-72
2022/11/07 09:17:22;;;;;;;;;;;12.40;85.10;;;;;;5026833;28;19909;-71
2022/11/07 09:19:48;;;;;;;;;;;12.40;85.30;;;;;;5027313;28;20331;-70
2022/11/07 09:22:13;;;;;;;;;;;12.40;85.30;;;;;;5021217;28;20825;-72
2022/11/07 09:24:39;;;;;;;;;;;12.40;85.70;;;;;;5012442;28;20383;-72
2022/11/07 09:27:04;;;;;;;;;;;12.50;85.60;;;;;;5021838;28;19909;-72
2022/11/07 09:29:30;;;;;;;;;;;12.60;85.20;;;;;;5011579;28;20276;-71
2022/11/07 09:31:55;;;;;;;;;;;12.60;85.20;;;;;;5008007;28;19959;-71
2022/11/07 09:34:21;;;;;;;;;;;12.60;85.30;;;;;;5020680;28;19913;-72
2022/11/07 09:36:46;;;;;;;;;;;12.70;84.60;;;;;;5024131;28;19915;-72
2022/11/07 09:39:11;;;;;;;;;;;12.60;85.20;;;;;;5018855;28;19913;-73
2022/11/07 09:41:37;;;;;;;;;;;12.60;85.40;;;;;;5007004;28;19939;-72
2022/11/07 09:44:16;;;;;;;;;;;12.50;85.30;;;;;;5013046;28;19940;-73
2022/11/07 09:46:51;;;;;;;;;;;12.50;85.40;;;;;;5025270;28;19920;-74
2022/11/07 09:49:46;;;;;;;;;;;12.40;85.40;;;;;;5020475;28;19979;-74
2022/11/07 09:52:11;;;;;;;;;;;12.50;85.80;;;;;;4941908;28;20871;-74
2022/11/07 09:54:40;;;;;;;;;;;12.60;85.30;;;;;;5008907;28;19944;-73
2022/11/07 09:57:08;;;;;;;;;;;12.90;85.10;;;;;;5002874;28;19915;-76
2022/11/07 09:59:40;;;;;;;;;;;13.10;84.40;;;;;;5009362;28;19915;-77
2022/11/07 10:02:14;;;;;;;;;;;13.00;83.80;;;;;;5010108;28;19917;-74
2022/11/07 10:04:39;;;;;;;;;;;13.10;84.10;;;;;;5008606;28;19916;-74
2022/11/07 10:07:13;;;;;;;;;;;13.10;83.40;;;;;;5008904;28;20376;-73
2022/11/07 10:09:48;;;;;;;;;;;13.30;83.80;;;;;;5023137;28;19987;-76
2022/11/07 10:12:37;;;;;;;;;;;13.50;82.60;;;;;;5020921;28;19913;-74
2022/11/07 10:15:17;;;;;;;;;;;13.80;81.50;;;;;;5006369;28;19909;-73
2022/11/07 10:18:12;;;;;;;;;;;13.70;81.70;;;;;;5003675;28;20377;-74
2022/11/07 10:21:04;;;;;;;;;;;13.80;81.30;;;;;;5031235;28;19955;-74
2022/11/07 10:23:33;;;;;;;;;;;13.80;81.40;;;;;;4971432;28;20348;-76
2022/11/07 10:26:03;;;;;;;;;;;13.90;81.20;;;;;;5020671;28;20007;-72
2022/11/07 10:28:29;;;;;;;;;;;13.90;80.50;;;;;;5024143;28;20396;-72
2022/11/07 10:30:56;;;;;;;;;;;13.60;81.40;;;;;;5010384;28;19951;-73
2022/11/07 10:33:37;;;;;;;;;;;13.50;81.50;;;;;;5028397;28;19921;-73
2022/11/07 10:36:23;;;;;;;;;;;13.30;81.40;;;;;;5001386;28;19913;-72
2022/11/07 10:38:49;;;;;;;;;;;13.20;82.00;;;;;;5023099;28;19939;-71
2022/11/07 10:41:18;;;;;;;;;;;12.90;82.60;;;;;;5025859;28;20015;-72
2022/11/07 10:43:45;;;;;;;;;;;12.90;83.50;;;;;;5019270;28;20293;-72
2022/11/07 10:46:29;;;;;;;;;;;12.90;83.50;;;;;;5022073;28;19913;-71
2022/11/07 10:48:59;;;;;;;;;;;12.90;83.50;;;;;;5029679;28;20384;-72
2022/11/07 10:51:34;;;;;;;;;;;12.80;83.80;;;;;;5026318;28;19909;-71
2022/11/07 10:54:00;;;;;;;;;;;12.70;83.80;;;;;;5012017;28;20370;-71
2022/11/07 10:56:25;;;;;;;;;;;12.70;84.40;;;;;;5005020;28;19939;-72
2022/11/07 10:58:52;;;;;;;;;;;12.70;84.30;;;;;;5009257;28;20019;-72
2022/11/07 11:01:22;;;;;;;;;;;12.70;84.10;;;;;;5010242;28;19920;-73
2022/11/07 11:03:48;;;;;;;;;;;12.70;83.90;;;;;;5019411;28;19923;-72
2022/11/07 11:06:16;;;;;;;;;;;12.70;84.10;;;;;;5010142;28;19913;-72
2022/11/07 11:08:42;;;;;;;;;;;12.70;83.90;;;;;;5016465;28;19921;-72
2022/11/07 11:11:20;;;;;;;;;;;12.70;84.30;;;;;;5026371;28;19909;-71
2022/11/07 11:13:46;;;;;;;;;;;12.60;84.60;;;;;;5026695;28;20268;-73
2022/11/07 11:16:21;;;;;;;;;;;12.80;84.00;;;;;;5030562;28;19913;-72
2022/11/07 11:18:48;;;;;;;;;;;12.80;84.20;;;;;;5025412;28;19916;-71
2022/11/07 11:21:13;;;;;;;;;;;12.80;83.90;;;;;;5028395;28;19917;-73
2022/11/07 11:23:41;;;;;;;;;;;13.00;84.10;;;;;;5020001;28;20074;-72
2022/11/07 11:26:12;;;;;;;;;;;13.10;84.10;;;;;;5030749;28;19909;-71
2022/11/07 11:28:43;;;;;;;;;;;13.10;83.80;;;;;;5023949;28;19932;-72
2022/11/07 11:31:23;;;;;;;;;;;13.00;83.50;;;;;;5025411;28;19920;-71
2022/11/07 11:33:53;;;;;;;;;;;13.00;83.30;;;;;;5022811;28;20284;-71
2022/11/07 11:36:22;;;;;;;;;;;13.00;83.20;;;;;;5033025;28;20288;-72
2022/11/07 11:38:53;;;;;;;;;;;13.00;83.30;;;;;;5025397;28;19916;-71
2022/11/07 11:41:33;;;;;;;;;;;13.00;83.80;;;;;;5024999;28;19909;-72
2022/11/07 11:44:19;;;;;;;;;;;13.00;83.90;;;;;;5026128;28;19955;-71
2022/11/07 11:46:49;;;;;;;;;;;13.10;83.40;;;;;;5023727;28;19914;-72
2022/11/07 11:49:17;;;;;;;;;;;13.20;83.40;;;;;;5022331;28;19909;-72
2022/11/07 11:51:44;;;;;;;;;;;13.20;83.00;;;;;;5023862;28;20348;-72
2022/11/07 11:54:11;;;;;;;;;;;13.30;83.10;;;;;;5024427;28;20358;-71
2022/11/07 11:56:51;;;;;;;;;;;13.20;83.10;;;;;;5034077;28;19916;-74
2022/11/07 11:59:17;;;;;;;;;;;13.30;83.00;;;;;;5024465;28;20303;-72
2022/11/07 12:02:01;;;;;;;;;;;13.30;83.30;;;;;;5030351;28;19917;-75
2022/11/07 12:04:29;;;;;;;;;;;13.30;83.20;;;;;;5026102;28;19917;-73
2022/11/07 12:07:02;;;;;;;;;;;13.30;83.00;;;;;;5028647;28;19918;-73
2022/11/07 12:09:31;;;;;;;;;;;13.30;83.60;;;;;;5025021;28;19924;-72
2022/11/07 12:12:05;;;;;;;;;;;13.30;83.20;;;;;;5013266;28;20012;-72
2022/11/07 12:14:40;;;;;;;;;;;13.30;83.20;;;;;;5025228;28;20032;-72
2022/11/07 12:17:38;;;;;;;;;;;13.30;83.40;;;;;;5024421;28;20032;-72
2022/11/07 12:20:23;;;;;;;;;;;13.30;83.20;;;;;;4973547;28;19948;-74
2022/11/07 12:22:59;;;;;;;;;;;13.40;83.10;;;;;;5007303;28;20011;-72
2022/11/07 12:25:27;;;;;;;;;;;13.40;83.00;;;;;;5021927;28;20012;-71
2022/11/07 12:28:24;;;;;;;;;;;13.40;83.50;;;;;;5020030;28;19909;-72
2022/11/07 12:31:02;;;;;;;;;;;13.40;82.80;;;;;;5022721;28;20282;-69
2022/11/07 12:33:36;;;;;;;;;;;13.40;82.20;;;;;;5022385;28;19909;-72
2022/11/07 12:36:10;;;;;;;;;;;13.40;83.10;;;;;;5030022;28;19909;-70
2022/11/07 12:38:50;;;;;;;;;;;13.40;82.90;;;;;;5030076;28;19916;-71
2022/11/07 12:41:22;;;;;;;;;;;13.50;82.90;;;;;;5022093;28;19916;-70
2022/11/07 12:44:07;;;;;;;;;;;13.50;83.10;;;;;;4999564;28;19913;-72
2022/11/07 12:46:52;;;;;;;;;;;13.50;83.10;;;;;;5007646;28;19936;-70
2022/11/07 12:49:37;;;;;;;;;;;13.50;82.80;;;;;;5026601;28;19913;-71
2022/11/07 12:52:16;;;;;;;;;;;13.40;83.00;;;;;;5026147;28;19920;-73
2022/11/07 12:54:59;;;;;;;;;;;13.40;82.90;;;;;;5021306;28;19948;-72
2022/11/07 12:57:25;;;;;;;;;;;13.50;82.90;;;;;;5024126;28;19931;-71
2022/11/07 12:59:57;;;;;;;;;;;13.50;82.80;;;;;;5022134;28;19909;-71
2022/11/07 13:02:29;;;;;;;;;;;13.50;83.10;;;;;;5027321;28;19944;-71
2022/11/07 13:05:03;;;;;;;;;;;13.40;83.50;;;;;;5028637;28;19917;-72
2022/11/07 13:07:40;;;;;;;;;;;13.40;84.50;;;;;;5011244;28;20345;-72
2022/11/07 13:10:22;;;;;;;;;;;13.10;85.40;;;;;;5009564;28;19916;-74
2022/11/07 13:12:56;;;;;;;;;;;13.00;86.70;;;;;;5022798;28;19917;-72
2022/11/07 13:15:21;;;;;;;;;;;12.70;88.50;;;;;;5019126;28;19932;-74
2022/11/07 13:17:47;;;;;;;;;;;12.50;90.40;;;;;;5031621;28;19916;-74
2022/11/07 13:20:30;;;;;;;;;;;12.40;91.10;;;;;;5007334;28;20046;-75
2022/11/07 13:22:56;;;;;;;;;;;12.30;91.90;;;;;;5023088;28;20902;-73
2022/11/07 13:25:27;;;;;;;;;;;12.30;92.10;;;;;;5008648;28;19917;-72
2022/11/07 13:27:56;;;;;;;;;;;12.30;92.80;;;;;;5018415;28;20107;-73
2022/11/07 13:30:34;;;;;;;;;;;12.30;92.80;;;;;;5014715;28;19991;-72
2022/11/07 13:32:59;;;;;;;;;;;12.20;92.70;;;;;;5004236;28;19999;-72
2022/11/07 13:35:35;;;;;;;;;;;12.30;92.70;;;;;;5028193;28;20419;-72
2022/11/07 13:38:02;;;;;;;;;;;12.30;92.50;;;;;;5024900;28;20371;-72
2022/11/07 13:40:34;;;;;;;;;;;12.40;92.10;;;;;;5008680;28;19966;-72
2022/11/07 13:43:26;;;;;;;;;;;12.40;92.10;;;;;;5008321;28;19917;-80
2022/11/07 13:45:51;;;;;;;;;;;12.40;91.80;;;;;;5018525;28;19917;-73
2022/11/07 13:48:20;;;;;;;;;;;12.50;91.80;;;;;;5025213;28;20452;-76
2022/11/07 13:50:50;;;;;;;;;;;12.50;91.30;;;;;;5028201;28;19909;-74
2022/11/07 13:53:19;;;;;;;;;;;12.60;90.70;;;;;;5029906;28;19909;-73
2022/11/07 13:56:05;;;;;;;;;;;12.60;90.40;;;;;;5026505;28;19909;-73
2022/11/07 13:58:33;;;;;;;;;;;12.70;90.00;;;;;;4985347;28;20417;-73
2022/11/07 14:01:17;;;;;;;;;;;12.60;88.60;;;;;;5025057;28;19909;-73
2022/11/07 14:03:42;;;;;;;;;;;12.80;87.90;;;;;;5029161;28;20487;-74
2022/11/07 14:06:11;;;;;;;;;;;12.80;88.30;;;;;;5027411;28;19945;-75
2022/11/07 14:08:38;;;;;;;;;;;12.80;87.70;;;;;;5025262;28;19975;-77
2022/11/07 14:11:11;;;;;;;;;;;12.90;87.40;;;;;;5025592;28;19913;-74
2022/11/07 14:13:37;;;;;;;;;;;12.90;87.40;;;;;;5028996;28;19913;-76
2022/11/07 14:16:05;;;;;;;;;;;12.90;86.60;;;;;;5028605;28;19912;-72
2022/11/07 14:18:31;;;;;;;;;;;13.00;86.90;;;;;;5029386;28;19917;-75
2022/11/07 14:20:57;;;;;;;;;;;13.00;86.90;;;;;;5020908;28;19917;-73
2022/11/07 14:23:24;;;;;;;;;;;12.90;86.70;;;;;;5024444;28;20007;-73
2022/11/07 14:25:58;;;;;;;;;;;13.00;86.60;;;;;;5027270;28;20004;-73
2022/11/07 14:28:23;;;;;;;;;;;13.00;86.90;;;;;;5030104;28;19944;-74
2022/11/07 14:30:50;;;;;;;;;;;13.00;86.50;;;;;;5028901;28;19959;-73
2022/11/07 14:33:17;;;;;;;;;;;13.00;86.60;;;;;;5019001;28;19916;-75
2022/11/07 14:35:45;;;;;;;;;;;13.00;86.40;;;;;;5029294;28;19917;-73